Saturday, October 25, 2014
03:34 UTC
  |  Log In   |  Register Free
Airport Search:

Julian Carroll Airport
(KJKL)

Julian Carroll Airport Diagram
No Airport Diagram Available

FAA data valid effective September 18, 2014 - November 13, 2014 (unless otherwise noted).

 
 
 
 
 
 
 
 
 
 
 
 
 
 

Current Aviation Weather for Julian Carroll Airport (KJKL)

The most recent METAR observation for KJKL was updated at: 0310
METAR Summary (Translated METAR)
KJKL
250253Z AUTO 00000KT 10SM CLR 12/03 A3008 RMK AO2 SLP184 T01170033 51006
KSJS
250255Z AUTO 22003KT 10SM CLR 09/06 A3008 RMK AO2 T00900061
(33.7 nm NE from KJKL)
KPBX
250255Z AUTO 17004KT 10SM CLR 10/05 A3008 RMK AO2 T00970050
(35.8 nm SE from KJKL)
TAF Summary (Translated TAF)
KJKL
241735Z 2418/2518 VRB03KT P6SM FEW110 SCT250 FM251400 22004KT P6SM SCT035 SCT070
KSJS
(33.7 nm NE from KJKL)
241735Z 2418/2518 VRB03KT P6SM FEW110 SCT250 FM251400 22006KT P6SM SCT035 SCT070
  Airport Weather Conditions for KJKL

 Current Weather at JKL
53° F
Fair
North winds at 0.0 mph
JKL NOAA Radar

Pressure: 30.08 in
Humidity: 57%
Wind: Calm
Dew Point: 37.9°F
Visibility: 10.00 mi


Airport Weather Forecast for KJKL

Translated METAR and TAF for KJKL
Translated METAR for KJKL (0329 UTC 25 October 2014)
found at http://aviationweather.gov/adds/metars/
 
METAR text: KJKL 250253Z AUTO 00000KT 10SM CLR 12/03 A3008 RMK AO2 SLP184 T01170033 51006
Conditions at: KJKL (NOCTOR/JACKSON , KY, US) observed 0253 UTC 25 October 2014
Temperature: 11.7°C (53°F)
Dewpoint: 3.3°C (38°F) [RH = 56%]
Pressure (altimeter): 30.08 inches Hg (1018.7 mb)
[Sea-level pressure: 1018.4 mb]
Winds: calm
Visibility: 10 or more miles (16+ km)
Ceiling: at least 12,000 feet AGL
Clouds: sky clear below 12,000 feet AGL
Weather: automated observation with no human augmentation;
there may or may not be significant weather present at this time
Translated TAF for KJKL
Forecast for: KJKL (NOCTOR/JACKSON , KY, US)
TAF Text: KJKL 242329Z 2500/2524 VRB03KT P6SM FEW250
Forecast period: 0000 to 1800 UTC 25 October 2014
Forecast type: FROM: standard forecast or significant change
Winds: variable direction winds at 3 MPH (3 knots; 1.6 m/s)
Visibility: 6 or more miles (10+ km)
Clouds: few clouds at 25000 feet AGL
Weather: no significant weather forecast for this period
TAF Text: FM251800 22004KT P6SM SCT035 BKN070
Forecast period: 1800 UTC 25 October 2014 to 0000 UTC 26 October 2014
Forecast type: FROM: standard forecast or significant change
Winds: from the SW (220 degrees) at 5 MPH (4 knots; 2.1 m/s)
Visibility: 6 or more miles (10+ km)
Ceiling: 7000 feet AGL
Clouds: scattered clouds at 3500 feet AGL
broken clouds at 7000 feet AGL
Weather: no significant weather forecast for this period

Find All Airport Services Find A Hotel Find A Rental Car Find A Golf Course Find A Restaurant $100 Hamburger



FBO's on the Field
FBO Company Facility Photos Services Transportation Aviation Fuel Prices: Prices include tax
Catering Weather Repair Courtesy Rental Type 100LL JetA JetA+ MOGAS 8087
 
Julian Carroll Airport

This FBO has not yet been rated
FS:Independent
Last Updated: Oct-07
Login to update fuel prices
SS:
Contact Julian Carroll AirportMore FBO Information
 
Add another FBO Facility Photos Catering Weather Repair Courtesy Rental Type 100LL JetA JetA+ MOGAS 8087
Services Transportation Aviation Fuel Prices: Prices include tax


model-print
model-print
model-print
model-print